sensor_id;sensor_type;location;lat;lon;timestamp;P1;durP1;ratioP1;P2;durP2;ratioP2
20621;SDS011;10470;42.670;23.354;2024-03-02T00:00:18;35.93;;;21.37;;
20621;SDS011;10470;42.670;23.354;2024-03-02T00:02:46;34.47;;;20.33;;
20621;SDS011;10470;42.670;23.354;2024-03-02T00:05:12;37.30;;;20.93;;
20621;SDS011;10470;42.670;23.354;2024-03-02T00:07:41;35.10;;;20.13;;
20621;SDS011;10470;42.670;23.354;2024-03-02T00:10:07;37.40;;;21.03;;
20621;SDS011;10470;42.670;23.354;2024-03-02T00:12:33;38.40;;;21.10;;
20621;SDS011;10470;42.670;23.354;2024-03-02T00:14:58;37.57;;;21.40;;
20621;SDS011;10470;42.670;23.354;2024-03-02T00:17:27;36.50;;;20.70;;
20621;SDS011;10470;42.670;23.354;2024-03-02T00:19:53;38.67;;;21.53;;
20621;SDS011;10470;42.670;23.354;2024-03-02T00:22:18;36.03;;;22.03;;
20621;SDS011;10470;42.670;23.354;2024-03-02T00:24:43;36.93;;;22.03;;
20621;SDS011;10470;42.670;23.354;2024-03-02T00:27:09;35.70;;;21.50;;
20621;SDS011;10470;42.670;23.354;2024-03-02T00:29:37;38.20;;;22.10;;
20621;SDS011;10470;42.670;23.354;2024-03-02T00:32:03;37.33;;;21.27;;
20621;SDS011;10470;42.670;23.354;2024-03-02T00:34:28;40.13;;;22.53;;
20621;SDS011;10470;42.670;23.354;2024-03-02T00:36:56;37.57;;;21.50;;
20621;SDS011;10470;42.670;23.354;2024-03-02T00:39:22;37.80;;;21.17;;
20621;SDS011;10470;42.670;23.354;2024-03-02T00:41:47;40.47;;;21.83;;
20621;SDS011;10470;42.670;23.354;2024-03-02T00:44:12;37.77;;;21.67;;
20621;SDS011;10470;42.670;23.354;2024-03-02T00:46:39;36.53;;;20.90;;
20621;SDS011;10470;42.670;23.354;2024-03-02T00:49:17;35.57;;;21.63;;
20621;SDS011;10470;42.670;23.354;2024-03-02T00:51:45;36.87;;;20.97;;
20621;SDS011;10470;42.670;23.354;2024-03-02T00:54:11;36.73;;;21.10;;
20621;SDS011;10470;42.670;23.354;2024-03-02T00:56:36;37.93;;;21.83;;
20621;SDS011;10470;42.670;23.354;2024-03-02T00:59:01;36.63;;;20.50;;
20621;SDS011;10470;42.670;23.354;2024-03-02T01:01:27;35.47;;;20.43;;
20621;SDS011;10470;42.670;23.354;2024-03-02T01:03:52;35.40;;;20.50;;
20621;SDS011;10470;42.670;23.354;2024-03-02T01:06:18;34.17;;;20.57;;
20621;SDS011;10470;42.670;23.354;2024-03-02T01:08:43;31.73;;;19.53;;
20621;SDS011;10470;42.670;23.354;2024-03-02T01:11:09;33.63;;;20.13;;
20621;SDS011;10470;42.670;23.354;2024-03-02T01:13:34;31.60;;;18.63;;
20621;SDS011;10470;42.670;23.354;2024-03-02T01:15:59;31.53;;;18.27;;
20621;SDS011;10470;42.670;23.354;2024-03-02T01:18:25;33.27;;;19.63;;
20621;SDS011;10470;42.670;23.354;2024-03-02T01:20:51;30.00;;;18.40;;
20621;SDS011;10470;42.670;23.354;2024-03-02T01:23:19;32.40;;;19.00;;
20621;SDS011;10470;42.670;23.354;2024-03-02T01:25:45;34.33;;;18.77;;
20621;SDS011;10470;42.670;23.354;2024-03-02T01:28:11;33.00;;;18.77;;
20621;SDS011;10470;42.670;23.354;2024-03-02T01:30:36;33.17;;;18.83;;
20621;SDS011;10470;42.670;23.354;2024-03-02T01:33:02;30.53;;;18.80;;
20621;SDS011;10470;42.670;23.354;2024-03-02T01:35:27;31.83;;;18.27;;
20621;SDS011;10470;42.670;23.354;2024-03-02T01:37:52;33.27;;;19.60;;
20621;SDS011;10470;42.670;23.354;2024-03-02T01:40:17;34.97;;;19.47;;
20621;SDS011;10470;42.670;23.354;2024-03-02T01:42:43;31.80;;;19.70;;
20621;SDS011;10470;42.670;23.354;2024-03-02T01:45:08;35.03;;;20.47;;
20621;SDS011;10470;42.670;23.354;2024-03-02T01:47:34;35.63;;;21.60;;
20621;SDS011;10470;42.670;23.354;2024-03-02T01:49:59;34.90;;;21.23;;
20621;SDS011;10470;42.670;23.354;2024-03-02T01:52:24;39.73;;;21.93;;
20621;SDS011;10470;42.670;23.354;2024-03-02T01:54:50;36.87;;;20.83;;
20621;SDS011;10470;42.670;23.354;2024-03-02T01:57:15;35.00;;;20.43;;
20621;SDS011;10470;42.670;23.354;2024-03-02T01:59:40;33.77;;;20.30;;
20621;SDS011;10470;42.670;23.354;2024-03-02T02:02:06;36.60;;;21.33;;
20621;SDS011;10470;42.670;23.354;2024-03-02T02:04:31;45.77;;;23.50;;
20621;SDS011;10470;42.670;23.354;2024-03-02T02:06:56;36.57;;;21.80;;
20621;SDS011;10470;42.670;23.354;2024-03-02T02:09:22;40.43;;;22.17;;
20621;SDS011;10470;42.670;23.354;2024-03-02T02:11:47;37.93;;;22.87;;
20621;SDS011;10470;42.670;23.354;2024-03-02T02:14:12;42.47;;;23.20;;
20621;SDS011;10470;42.670;23.354;2024-03-02T02:16:38;41.30;;;22.77;;
20621;SDS011;10470;42.670;23.354;2024-03-02T02:19:03;40.30;;;23.50;;
20621;SDS011;10470;42.670;23.354;2024-03-02T02:21:28;45.17;;;24.17;;
20621;SDS011;10470;42.670;23.354;2024-03-02T02:23:53;43.63;;;23.60;;
20621;SDS011;10470;42.670;23.354;2024-03-02T02:26:19;41.27;;;23.93;;
20621;SDS011;10470;42.670;23.354;2024-03-02T02:28:44;41.83;;;23.43;;
20621;SDS011;10470;42.670;23.354;2024-03-02T02:31:15;44.90;;;24.47;;
20621;SDS011;10470;42.670;23.354;2024-03-02T02:33:40;40.03;;;23.60;;
20621;SDS011;10470;42.670;23.354;2024-03-02T02:36:05;44.33;;;25.10;;
20621;SDS011;10470;42.670;23.354;2024-03-02T02:38:31;42.07;;;23.87;;
20621;SDS011;10470;42.670;23.354;2024-03-02T02:40:58;40.97;;;22.97;;
20621;SDS011;10470;42.670;23.354;2024-03-02T02:43:23;40.07;;;22.13;;
20621;SDS011;10470;42.670;23.354;2024-03-02T02:45:48;40.60;;;23.33;;
20621;SDS011;10470;42.670;23.354;2024-03-02T02:48:14;40.27;;;22.50;;
20621;SDS011;10470;42.670;23.354;2024-03-02T02:50:39;41.90;;;23.43;;
20621;SDS011;10470;42.670;23.354;2024-03-02T02:53:04;40.83;;;23.43;;
20621;SDS011;10470;42.670;23.354;2024-03-02T02:55:31;42.53;;;22.97;;
20621;SDS011;10470;42.670;23.354;2024-03-02T02:57:56;40.13;;;23.10;;
20621;SDS011;10470;42.670;23.354;2024-03-02T03:00:21;41.77;;;22.80;;
20621;SDS011;10470;42.670;23.354;2024-03-02T03:02:48;44.03;;;23.70;;
20621;SDS011;10470;42.670;23.354;2024-03-02T03:05:14;38.13;;;23.10;;
20621;SDS011;10470;42.670;23.354;2024-03-02T03:07:40;43.17;;;23.83;;
20621;SDS011;10470;42.670;23.354;2024-03-02T03:10:06;45.77;;;24.33;;
20621;SDS011;10470;42.670;23.354;2024-03-02T03:12:31;42.20;;;23.33;;
20621;SDS011;10470;42.670;23.354;2024-03-02T03:14:57;45.50;;;24.60;;
20621;SDS011;10470;42.670;23.354;2024-03-02T03:17:22;39.53;;;22.53;;
20621;SDS011;10470;42.670;23.354;2024-03-02T03:19:48;40.50;;;23.53;;
20621;SDS011;10470;42.670;23.354;2024-03-02T03:22:13;40.57;;;23.93;;
20621;SDS011;10470;42.670;23.354;2024-03-02T03:24:38;42.10;;;24.37;;
20621;SDS011;10470;42.670;23.354;2024-03-02T03:27:04;41.57;;;23.97;;
20621;SDS011;10470;42.670;23.354;2024-03-02T03:29:29;41.87;;;23.80;;
20621;SDS011;10470;42.670;23.354;2024-03-02T03:31:54;39.27;;;23.27;;
20621;SDS011;10470;42.670;23.354;2024-03-02T03:34:19;41.43;;;23.40;;
20621;SDS011;10470;42.670;23.354;2024-03-02T03:36:45;40.33;;;22.97;;
20621;SDS011;10470;42.670;23.354;2024-03-02T03:39:10;41.20;;;23.07;;
20621;SDS011;10470;42.670;23.354;2024-03-02T03:41:35;42.03;;;23.70;;
20621;SDS011;10470;42.670;23.354;2024-03-02T03:44:01;41.67;;;23.40;;
20621;SDS011;10470;42.670;23.354;2024-03-02T03:46:26;39.57;;;22.87;;
20621;SDS011;10470;42.670;23.354;2024-03-02T03:48:51;41.87;;;23.57;;
20621;SDS011;10470;42.670;23.354;2024-03-02T03:51:16;40.17;;;22.03;;
20621;SDS011;10470;42.670;23.354;2024-03-02T03:53:42;42.73;;;23.20;;
20621;SDS011;10470;42.670;23.354;2024-03-02T03:56:07;42.00;;;23.77;;
20621;SDS011;10470;42.670;23.354;2024-03-02T03:58:32;38.77;;;22.33;;
20621;SDS011;10470;42.670;23.354;2024-03-02T04:00:58;39.27;;;23.23;;
20621;SDS011;10470;42.670;23.354;2024-03-02T04:03:23;38.50;;;23.50;;
20621;SDS011;10470;42.670;23.354;2024-03-02T04:05:48;42.70;;;23.57;;
20621;SDS011;10470;42.670;23.354;2024-03-02T04:08:13;38.33;;;22.83;;
20621;SDS011;10470;42.670;23.354;2024-03-02T04:10:38;40.50;;;23.03;;
20621;SDS011;10470;42.670;23.354;2024-03-02T04:13:05;46.00;;;24.57;;
20621;SDS011;10470;42.670;23.354;2024-03-02T04:15:30;44.13;;;24.47;;
20621;SDS011;10470;42.670;23.354;2024-03-02T04:17:56;41.83;;;24.27;;
20621;SDS011;10470;42.670;23.354;2024-03-02T04:20:21;41.00;;;24.63;;
20621;SDS011;10470;42.670;23.354;2024-03-02T04:22:46;43.17;;;23.87;;
20621;SDS011;10470;42.670;23.354;2024-03-02T04:25:11;40.70;;;22.90;;
20621;SDS011;10470;42.670;23.354;2024-03-02T04:27:37;39.10;;;22.27;;
20621;SDS011;10470;42.670;23.354;2024-03-02T04:30:03;43.27;;;23.77;;
20621;SDS011;10470;42.670;23.354;2024-03-02T04:32:28;38.17;;;22.13;;
20621;SDS011;10470;42.670;23.354;2024-03-02T04:34:54;41.23;;;23.10;;
20621;SDS011;10470;42.670;23.354;2024-03-02T04:37:19;38.10;;;22.70;;
20621;SDS011;10470;42.670;23.354;2024-03-02T04:39:45;37.87;;;21.53;;
20621;SDS011;10470;42.670;23.354;2024-03-02T04:42:10;37.53;;;22.63;;
20621;SDS011;10470;42.670;23.354;2024-03-02T04:44:35;39.23;;;22.10;;
20621;SDS011;10470;42.670;23.354;2024-03-02T04:47:00;38.23;;;22.63;;
20621;SDS011;10470;42.670;23.354;2024-03-02T04:49:26;41.43;;;22.70;;
20621;SDS011;10470;42.670;23.354;2024-03-02T04:51:51;40.80;;;23.30;;
20621;SDS011;10470;42.670;23.354;2024-03-02T04:54:16;36.27;;;22.03;;
20621;SDS011;10470;42.670;23.354;2024-03-02T04:56:41;40.90;;;23.83;;
20621;SDS011;10470;42.670;23.354;2024-03-02T04:59:14;45.17;;;24.43;;
20621;SDS011;10470;42.670;23.354;2024-03-02T05:01:39;44.37;;;24.80;;
20621;SDS011;10470;42.670;23.354;2024-03-02T05:04:04;40.67;;;23.93;;
20621;SDS011;10470;42.670;23.354;2024-03-02T05:06:30;54.60;;;30.20;;
20621;SDS011;10470;42.670;23.354;2024-03-02T05:08:55;48.67;;;27.37;;
20621;SDS011;10470;42.670;23.354;2024-03-02T05:11:21;51.67;;;30.63;;
20621;SDS011;10470;42.670;23.354;2024-03-02T05:14:02;88.53;;;38.83;;
20621;SDS011;10470;42.670;23.354;2024-03-02T05:16:27;63.23;;;32.07;;
20621;SDS011;10470;42.670;23.354;2024-03-02T05:18:52;56.23;;;28.77;;
20621;SDS011;10470;42.670;23.354;2024-03-02T05:21:17;58.23;;;31.07;;
20621;SDS011;10470;42.670;23.354;2024-03-02T05:23:43;52.00;;;28.47;;
20621;SDS011;10470;42.670;23.354;2024-03-02T05:26:09;57.83;;;28.97;;
20621;SDS011;10470;42.670;23.354;2024-03-02T05:28:36;73.20;;;33.77;;
20621;SDS011;10470;42.670;23.354;2024-03-02T05:31:01;93.60;;;41.10;;
20621;SDS011;10470;42.670;23.354;2024-03-02T05:33:26;79.40;;;38.40;;
20621;SDS011;10470;42.670;23.354;2024-03-02T05:35:52;68.77;;;33.10;;
20621;SDS011;10470;42.670;23.354;2024-03-02T05:38:17;95.30;;;47.17;;
20621;SDS011;10470;42.670;23.354;2024-03-02T05:40:42;82.17;;;41.07;;
20621;SDS011;10470;42.670;23.354;2024-03-02T05:43:07;107.27;;;51.80;;
20621;SDS011;10470;42.670;23.354;2024-03-02T05:45:33;79.90;;;40.87;;
20621;SDS011;10470;42.670;23.354;2024-03-02T05:47:58;73.43;;;38.83;;
20621;SDS011;10470;42.670;23.354;2024-03-02T05:50:23;61.07;;;34.77;;
20621;SDS011;10470;42.670;23.354;2024-03-02T05:52:48;56.20;;;29.43;;
20621;SDS011;10470;42.670;23.354;2024-03-02T05:55:14;50.30;;;26.10;;
20621;SDS011;10470;42.670;23.354;2024-03-02T05:57:39;47.00;;;26.17;;
20621;SDS011;10470;42.670;23.354;2024-03-02T06:00:11;44.83;;;25.57;;
20621;SDS011;10470;42.670;23.354;2024-03-02T06:02:39;41.87;;;24.20;;
20621;SDS011;10470;42.670;23.354;2024-03-02T06:05:04;42.87;;;23.97;;
20621;SDS011;10470;42.670;23.354;2024-03-02T06:07:29;45.77;;;24.67;;
20621;SDS011;10470;42.670;23.354;2024-03-02T06:09:55;43.43;;;24.47;;
20621;SDS011;10470;42.670;23.354;2024-03-02T06:12:20;46.33;;;24.13;;
20621;SDS011;10470;42.670;23.354;2024-03-02T06:14:45;51.60;;;27.77;;
20621;SDS011;10470;42.670;23.354;2024-03-02T06:17:11;45.73;;;24.97;;
20621;SDS011;10470;42.670;23.354;2024-03-02T06:19:36;48.83;;;24.87;;
20621;SDS011;10470;42.670;23.354;2024-03-02T06:22:01;56.23;;;30.20;;
20621;SDS011;10470;42.670;23.354;2024-03-02T06:24:27;49.00;;;25.73;;
20621;SDS011;10470;42.670;23.354;2024-03-02T06:26:52;50.80;;;27.47;;
20621;SDS011;10470;42.670;23.354;2024-03-02T06:29:17;47.23;;;25.47;;
20621;SDS011;10470;42.670;23.354;2024-03-02T06:31:42;49.70;;;25.03;;
20621;SDS011;10470;42.670;23.354;2024-03-02T06:34:07;46.70;;;25.50;;
20621;SDS011;10470;42.670;23.354;2024-03-02T06:36:33;49.37;;;25.37;;
20621;SDS011;10470;42.670;23.354;2024-03-02T06:38:58;51.87;;;25.63;;
20621;SDS011;10470;42.670;23.354;2024-03-02T06:41:24;49.57;;;26.13;;
20621;SDS011;10470;42.670;23.354;2024-03-02T06:43:49;52.80;;;28.03;;
20621;SDS011;10470;42.670;23.354;2024-03-02T06:46:14;44.70;;;24.77;;
20621;SDS011;10470;42.670;23.354;2024-03-02T06:48:40;45.57;;;23.77;;
20621;SDS011;10470;42.670;23.354;2024-03-02T06:51:05;47.60;;;24.23;;
20621;SDS011;10470;42.670;23.354;2024-03-02T06:53:31;52.60;;;25.30;;
20621;SDS011;10470;42.670;23.354;2024-03-02T06:55:58;46.17;;;24.37;;
20621;SDS011;10470;42.670;23.354;2024-03-02T06:58:23;42.83;;;24.23;;
20621;SDS011;10470;42.670;23.354;2024-03-02T07:00:49;45.97;;;24.43;;
20621;SDS011;10470;42.670;23.354;2024-03-02T07:03:14;49.63;;;27.87;;
20621;SDS011;10470;42.670;23.354;2024-03-02T07:05:39;43.17;;;24.20;;
20621;SDS011;10470;42.670;23.354;2024-03-02T07:08:05;47.13;;;24.10;;
20621;SDS011;10470;42.670;23.354;2024-03-02T07:10:31;47.83;;;25.83;;
20621;SDS011;10470;42.670;23.354;2024-03-02T07:12:56;47.97;;;25.67;;
20621;SDS011;10470;42.670;23.354;2024-03-02T07:15:21;47.17;;;24.67;;
20621;SDS011;10470;42.670;23.354;2024-03-02T07:17:52;45.47;;;24.83;;
20621;SDS011;10470;42.670;23.354;2024-03-02T07:20:18;45.50;;;25.07;;
20621;SDS011;10470;42.670;23.354;2024-03-02T07:22:43;50.93;;;26.30;;
20621;SDS011;10470;42.670;23.354;2024-03-02T07:25:08;53.30;;;26.23;;
20621;SDS011;10470;42.670;23.354;2024-03-02T07:27:34;54.17;;;27.27;;
20621;SDS011;10470;42.670;23.354;2024-03-02T07:30:01;55.47;;;26.17;;
20621;SDS011;10470;42.670;23.354;2024-03-02T07:32:26;52.47;;;25.97;;
20621;SDS011;10470;42.670;23.354;2024-03-02T07:34:51;57.23;;;27.50;;
20621;SDS011;10470;42.670;23.354;2024-03-02T07:37:17;55.63;;;27.33;;
20621;SDS011;10470;42.670;23.354;2024-03-02T07:39:43;52.00;;;25.93;;
20621;SDS011;10470;42.670;23.354;2024-03-02T07:42:09;52.07;;;25.00;;
20621;SDS011;10470;42.670;23.354;2024-03-02T07:44:34;51.60;;;24.67;;
20621;SDS011;10470;42.670;23.354;2024-03-02T07:46:59;52.30;;;25.17;;
20621;SDS011;10470;42.670;23.354;2024-03-02T07:49:24;49.67;;;24.00;;
20621;SDS011;10470;42.670;23.354;2024-03-02T07:51:50;50.60;;;25.07;;
20621;SDS011;10470;42.670;23.354;2024-03-02T07:54:15;45.70;;;24.00;;
20621;SDS011;10470;42.670;23.354;2024-03-02T07:56:40;51.13;;;23.93;;
20621;SDS011;10470;42.670;23.354;2024-03-02T07:59:05;46.17;;;23.53;;
20621;SDS011;10470;42.670;23.354;2024-03-02T08:01:32;45.80;;;22.90;;
20621;SDS011;10470;42.670;23.354;2024-03-02T08:03:58;46.57;;;24.03;;
20621;SDS011;10470;42.670;23.354;2024-03-02T08:06:24;44.53;;;23.67;;
20621;SDS011;10470;42.670;23.354;2024-03-02T08:08:52;50.90;;;24.07;;
20621;SDS011;10470;42.670;23.354;2024-03-02T08:11:17;47.87;;;23.77;;
20621;SDS011;10470;42.670;23.354;2024-03-02T08:13:42;41.60;;;23.00;;
20621;SDS011;10470;42.670;23.354;2024-03-02T08:16:08;47.43;;;23.37;;
20621;SDS011;10470;42.670;23.354;2024-03-02T08:18:34;40.80;;;22.43;;
20621;SDS011;10470;42.670;23.354;2024-03-02T08:20:59;43.77;;;22.80;;
20621;SDS011;10470;42.670;23.354;2024-03-02T08:23:25;42.17;;;22.13;;
20621;SDS011;10470;42.670;23.354;2024-03-02T08:25:50;39.33;;;21.80;;
20621;SDS011;10470;42.670;23.354;2024-03-02T08:28:15;41.97;;;22.73;;
20621;SDS011;10470;42.670;23.354;2024-03-02T08:30:41;42.53;;;22.27;;
20621;SDS011;10470;42.670;23.354;2024-03-02T08:33:06;41.80;;;22.53;;
20621;SDS011;10470;42.670;23.354;2024-03-02T08:35:31;48.97;;;25.50;;
20621;SDS011;10470;42.670;23.354;2024-03-02T08:38:01;49.53;;;24.70;;
20621;SDS011;10470;42.670;23.354;2024-03-02T08:40:26;49.70;;;27.10;;
20621;SDS011;10470;42.670;23.354;2024-03-02T08:42:52;46.00;;;25.33;;
20621;SDS011;10470;42.670;23.354;2024-03-02T08:45:17;51.17;;;25.60;;
20621;SDS011;10470;42.670;23.354;2024-03-02T08:47:45;48.00;;;24.27;;
20621;SDS011;10470;42.670;23.354;2024-03-02T08:50:10;49.03;;;25.63;;
20621;SDS011;10470;42.670;23.354;2024-03-02T08:52:35;44.90;;;24.00;;
20621;SDS011;10470;42.670;23.354;2024-03-02T08:55:01;47.77;;;24.23;;
20621;SDS011;10470;42.670;23.354;2024-03-02T08:57:26;49.40;;;25.97;;
20621;SDS011;10470;42.670;23.354;2024-03-02T08:59:51;50.37;;;25.43;;
20621;SDS011;10470;42.670;23.354;2024-03-02T09:02:17;52.53;;;26.03;;
20621;SDS011;10470;42.670;23.354;2024-03-02T09:04:42;48.50;;;25.67;;
20621;SDS011;10470;42.670;23.354;2024-03-02T09:07:07;50.97;;;26.47;;
20621;SDS011;10470;42.670;23.354;2024-03-02T09:09:32;47.40;;;24.97;;
20621;SDS011;10470;42.670;23.354;2024-03-02T09:11:58;46.93;;;24.47;;
20621;SDS011;10470;42.670;23.354;2024-03-02T09:14:23;48.43;;;26.60;;
20621;SDS011;10470;42.670;23.354;2024-03-02T09:16:49;44.57;;;25.83;;
20621;SDS011;10470;42.670;23.354;2024-03-02T09:19:14;45.57;;;24.67;;
20621;SDS011;10470;42.670;23.354;2024-03-02T09:21:39;40.23;;;22.57;;
20621;SDS011;10470;42.670;23.354;2024-03-02T09:24:04;44.07;;;23.83;;
20621;SDS011;10470;42.670;23.354;2024-03-02T09:26:31;43.97;;;23.57;;
20621;SDS011;10470;42.670;23.354;2024-03-02T09:28:57;44.13;;;23.07;;
20621;SDS011;10470;42.670;23.354;2024-03-02T09:31:22;40.70;;;22.53;;
20621;SDS011;10470;42.670;23.354;2024-03-02T09:33:47;43.87;;;22.97;;
20621;SDS011;10470;42.670;23.354;2024-03-02T09:36:18;41.33;;;23.67;;
20621;SDS011;10470;42.670;23.354;2024-03-02T09:38:44;42.47;;;22.97;;
20621;SDS011;10470;42.670;23.354;2024-03-02T09:41:10;46.37;;;24.67;;
20621;SDS011;10470;42.670;23.354;2024-03-02T09:43:35;44.77;;;23.77;;
20621;SDS011;10470;42.670;23.354;2024-03-02T09:46:01;42.00;;;23.67;;
20621;SDS011;10470;42.670;23.354;2024-03-02T09:48:26;41.87;;;22.67;;
20621;SDS011;10470;42.670;23.354;2024-03-02T09:50:51;44.70;;;24.10;;
20621;SDS011;10470;42.670;23.354;2024-03-02T09:53:17;44.60;;;23.73;;
20621;SDS011;10470;42.670;23.354;2024-03-02T09:55:46;41.07;;;24.13;;
20621;SDS011;10470;42.670;23.354;2024-03-02T09:58:11;51.53;;;27.77;;
20621;SDS011;10470;42.670;23.354;2024-03-02T10:00:37;49.00;;;26.70;;
20621;SDS011;10470;42.670;23.354;2024-03-02T10:03:02;47.00;;;25.03;;
20621;SDS011;10470;42.670;23.354;2024-03-02T10:05:29;42.47;;;24.20;;
20621;SDS011;10470;42.670;23.354;2024-03-02T10:08:01;43.93;;;23.57;;
20621;SDS011;10470;42.670;23.354;2024-03-02T10:10:37;42.53;;;22.63;;
20621;SDS011;10470;42.670;23.354;2024-03-02T10:13:08;43.93;;;22.53;;
20621;SDS011;10470;42.670;23.354;2024-03-02T10:15:34;40.23;;;22.33;;
20621;SDS011;10470;42.670;23.354;2024-03-02T10:17:59;43.77;;;22.93;;
20621;SDS011;10470;42.670;23.354;2024-03-02T10:20:25;42.77;;;22.60;;
20621;SDS011;10470;42.670;23.354;2024-03-02T10:22:50;40.93;;;22.17;;
20621;SDS011;10470;42.670;23.354;2024-03-02T10:25:31;45.67;;;23.90;;
20621;SDS011;10470;42.670;23.354;2024-03-02T10:27:59;47.80;;;23.57;;
20621;SDS011;10470;42.670;23.354;2024-03-02T10:30:25;44.00;;;23.43;;
20621;SDS011;10470;42.670;23.354;2024-03-02T10:32:51;41.73;;;22.13;;
20621;SDS011;10470;42.670;23.354;2024-03-02T10:35:17;42.47;;;23.53;;
20621;SDS011;10470;42.670;23.354;2024-03-02T10:37:42;41.40;;;22.10;;
20621;SDS011;10470;42.670;23.354;2024-03-02T10:40:09;41.97;;;22.53;;
20621;SDS011;10470;42.670;23.354;2024-03-02T10:42:35;42.03;;;23.43;;
20621;SDS011;10470;42.670;23.354;2024-03-02T10:45:01;53.47;;;28.40;;
20621;SDS011;10470;42.670;23.354;2024-03-02T10:47:27;47.10;;;25.63;;
20621;SDS011;10470;42.670;23.354;2024-03-02T10:49:52;59.20;;;32.07;;
20621;SDS011;10470;42.670;23.354;2024-03-02T10:52:19;53.93;;;33.00;;
20621;SDS011;10470;42.670;23.354;2024-03-02T10:54:44;43.57;;;25.97;;
20621;SDS011;10470;42.670;23.354;2024-03-02T10:57:10;41.87;;;25.97;;
20621;SDS011;10470;42.670;23.354;2024-03-02T10:59:36;64.33;;;37.33;;
20621;SDS011;10470;42.670;23.354;2024-03-02T11:02:04;68.10;;;39.13;;
20621;SDS011;10470;42.670;23.354;2024-03-02T11:04:32;62.57;;;35.83;;
20621;SDS011;10470;42.670;23.354;2024-03-02T11:07:07;65.10;;;36.10;;
20621;SDS011;10470;42.670;23.354;2024-03-02T11:09:44;49.20;;;29.50;;
20621;SDS011;10470;42.670;23.354;2024-03-02T11:12:14;43.87;;;26.07;;
20621;SDS011;10470;42.670;23.354;2024-03-02T11:14:41;39.57;;;22.07;;
20621;SDS011;10470;42.670;23.354;2024-03-02T11:17:09;38.70;;;22.60;;
20621;SDS011;10470;42.670;23.354;2024-03-02T11:19:36;45.53;;;24.80;;
20621;SDS011;10470;42.670;23.354;2024-03-02T11:22:02;39.93;;;23.70;;
20621;SDS011;10470;42.670;23.354;2024-03-02T11:24:28;36.67;;;21.63;;
20621;SDS011;10470;42.670;23.354;2024-03-02T11:26:57;38.77;;;20.70;;
20621;SDS011;10470;42.670;23.354;2024-03-02T11:32:01;32.53;;;19.70;;
20621;SDS011;10470;42.670;23.354;2024-03-02T11:34:36;34.30;;;19.33;;
20621;SDS011;10470;42.670;23.354;2024-03-02T11:37:04;37.73;;;21.90;;
20621;SDS011;10470;42.670;23.354;2024-03-02T11:39:29;43.83;;;22.57;;
20621;SDS011;10470;42.670;23.354;2024-03-02T11:41:55;44.07;;;23.80;;
20621;SDS011;10470;42.670;23.354;2024-03-02T11:44:20;43.80;;;23.07;;
20621;SDS011;10470;42.670;23.354;2024-03-02T11:46:58;43.63;;;25.90;;
20621;SDS011;10470;42.670;23.354;2024-03-02T11:52:10;36.97;;;21.73;;
20621;SDS011;10470;42.670;23.354;2024-03-02T11:54:40;34.70;;;20.43;;
20621;SDS011;10470;42.670;23.354;2024-03-02T11:57:11;35.90;;;20.83;;
20621;SDS011;10470;42.670;23.354;2024-03-02T11:59:36;33.77;;;20.43;;
20621;SDS011;10470;42.670;23.354;2024-03-02T12:02:02;33.20;;;19.77;;
20621;SDS011;10470;42.670;23.354;2024-03-02T12:04:27;27.87;;;18.03;;
20621;SDS011;10470;42.670;23.354;2024-03-02T12:06:54;28.77;;;17.47;;
20621;SDS011;10470;42.670;23.354;2024-03-02T12:09:20;27.00;;;16.80;;
20621;SDS011;10470;42.670;23.354;2024-03-02T12:11:46;25.27;;;16.17;;
20621;SDS011;10470;42.670;23.354;2024-03-02T12:14:11;27.03;;;16.53;;
20621;SDS011;10470;42.670;23.354;2024-03-02T12:16:38;25.03;;;15.37;;
20621;SDS011;10470;42.670;23.354;2024-03-02T12:19:04;23.30;;;15.00;;
20621;SDS011;10470;42.670;23.354;2024-03-02T12:21:29;25.27;;;16.10;;
20621;SDS011;10470;42.670;23.354;2024-03-02T12:23:55;25.53;;;16.47;;
20621;SDS011;10470;42.670;23.354;2024-03-02T12:26:20;23.63;;;15.30;;
20621;SDS011;10470;42.670;23.354;2024-03-02T12:28:46;24.97;;;15.30;;
20621;SDS011;10470;42.670;23.354;2024-03-02T12:31:13;27.70;;;14.97;;
20621;SDS011;10470;42.670;23.354;2024-03-02T12:33:38;22.30;;;15.13;;
20621;SDS011;10470;42.670;23.354;2024-03-02T12:36:03;25.70;;;16.47;;
20621;SDS011;10470;42.670;23.354;2024-03-02T12:38:29;22.80;;;14.53;;
20621;SDS011;10470;42.670;23.354;2024-03-02T12:40:54;22.97;;;14.30;;
20621;SDS011;10470;42.670;23.354;2024-03-02T12:43:19;21.07;;;14.27;;
20621;SDS011;10470;42.670;23.354;2024-03-02T12:45:45;22.33;;;14.40;;
20621;SDS011;10470;42.670;23.354;2024-03-02T12:48:10;23.47;;;15.13;;
20621;SDS011;10470;42.670;23.354;2024-03-02T12:50:35;24.30;;;15.70;;
20621;SDS011;10470;42.670;23.354;2024-03-02T12:53:01;22.40;;;14.40;;
20621;SDS011;10470;42.670;23.354;2024-03-02T12:55:26;21.43;;;14.20;;
20621;SDS011;10470;42.670;23.354;2024-03-02T12:57:54;22.60;;;14.43;;
20621;SDS011;10470;42.670;23.354;2024-03-02T13:00:19;23.47;;;15.07;;
20621;SDS011;10470;42.670;23.354;2024-03-02T13:02:45;25.63;;;15.87;;
20621;SDS011;10470;42.670;23.354;2024-03-02T13:05:11;23.93;;;15.77;;
20621;SDS011;10470;42.670;23.354;2024-03-02T13:07:36;22.50;;;13.67;;
20621;SDS011;10470;42.670;23.354;2024-03-02T13:10:02;21.57;;;14.17;;
20621;SDS011;10470;42.670;23.354;2024-03-02T13:12:28;20.57;;;14.03;;
20621;SDS011;10470;42.670;23.354;2024-03-02T13:14:54;18.83;;;13.13;;
20621;SDS011;10470;42.670;23.354;2024-03-02T13:17:20;19.83;;;13.83;;
20621;SDS011;10470;42.670;23.354;2024-03-02T13:22:17;20.63;;;13.80;;
20621;SDS011;10470;42.670;23.354;2024-03-02T13:24:43;18.90;;;13.47;;
20621;SDS011;10470;42.670;23.354;2024-03-02T13:27:08;21.90;;;13.67;;
20621;SDS011;10470;42.670;23.354;2024-03-02T13:29:33;23.03;;;13.67;;
20621;SDS011;10470;42.670;23.354;2024-03-02T13:31:59;21.97;;;14.10;;
20621;SDS011;10470;42.670;23.354;2024-03-02T13:34:24;21.10;;;14.13;;
20621;SDS011;10470;42.670;23.354;2024-03-02T13:36:49;23.73;;;16.23;;
20621;SDS011;10470;42.670;23.354;2024-03-02T13:39:15;25.30;;;17.23;;
20621;SDS011;10470;42.670;23.354;2024-03-02T13:41:41;25.17;;;17.37;;
20621;SDS011;10470;42.670;23.354;2024-03-02T13:44:06;31.37;;;19.53;;
20621;SDS011;10470;42.670;23.354;2024-03-02T13:46:32;31.40;;;19.00;;
20621;SDS011;10470;42.670;23.354;2024-03-02T13:48:57;24.83;;;16.10;;
20621;SDS011;10470;42.670;23.354;2024-03-02T13:51:23;23.93;;;15.40;;
20621;SDS011;10470;42.670;23.354;2024-03-02T13:53:48;26.23;;;17.23;;
20621;SDS011;10470;42.670;23.354;2024-03-02T13:56:13;29.63;;;18.77;;
20621;SDS011;10470;42.670;23.354;2024-03-02T13:58:38;28.63;;;19.17;;
20621;SDS011;10470;42.670;23.354;2024-03-02T14:01:04;50.23;;;27.00;;
20621;SDS011;10470;42.670;23.354;2024-03-02T14:03:30;35.67;;;21.93;;
20621;SDS011;10470;42.670;23.354;2024-03-02T14:05:55;34.37;;;22.07;;
20621;SDS011;10470;42.670;23.354;2024-03-02T14:08:20;39.73;;;26.90;;